Time;durP1;ratioP1;P1;durP2;ratioP2;P2;SDS_P1;SDS_P2;PMS_P1;PMS_P2;Temp;Humidity;BMP_temperature;BMP_pressure;BME280_temperature;BME280_humidity;BME280_pressure;Samples;Min_cycle;Max_cycle;Signal;HPM_P1;HPM_P2
2022/02/04 00:20:10;;;;;;;0.85;0.60;;;;;;;;;;5023200;28;20101;-71
2022/02/04 00:21:28;;;;;;;0.60;0.40;;;;;;;;;;5022766;28;20056;-71
2022/02/04 00:23:48;;;;;;;1.20;0.50;;;;;;;;;;5020638;28;20076;-71
2022/02/04 00:26:19;;;;;;;0.98;0.60;;;;;;;;;;5022976;28;20484;-71
2022/02/04 00:31:43;;;;;;;0.88;0.50;;;;;;;;;;5004787;28;20029;-71
2022/02/04 00:34:14;;;;;;;0.88;0.52;;;;;;;;;;5007682;28;20565;-72
2022/02/04 00:39:19;;;;;;;2.30;0.50;;;;;;;;;;5023124;28;20045;-71
2022/02/04 00:41:46;;;;;;;1.02;0.60;;;;;;;;;;5023006;28;20028;-71
2022/02/04 00:44:25;;;;;;;0.77;0.52;;;;;;;;;;5022928;28;20061;-72
2022/02/04 00:47:01;;;;;;;0.70;0.40;;;;;;;;;;5021007;28;20060;-72
2022/02/04 00:55:19;;;;;;;0.98;0.50;;;;;;;;;;5023351;28;20037;-71
2022/02/04 01:28:24;;;;;;;0.73;0.30;;;;;;;;;;5019155;28;20033;-72
2022/02/04 01:30:50;;;;;;;0.25;0.22;;;;;;;;;;5023389;28;20025;-71
2022/02/04 01:33:16;;;;;;;0.70;0.30;;;;;;;;;;5025518;28;20071;-71
2022/02/04 01:35:42;;;;;;;1.92;0.50;;;;;;;;;;5018873;28;20059;-71
2022/02/04 01:38:08;;;;;;;0.98;0.40;;;;;;;;;;5020174;28;20026;-71
2022/02/04 01:40:34;;;;;;;1.10;0.40;;;;;;;;;;5023821;28;20474;-73
2022/02/04 01:43:01;;;;;;;0.30;0.20;;;;;;;;;;5017329;28;20041;-71
2022/02/04 01:45:27;;;;;;;0.68;0.40;;;;;;;;;;5027463;28;20099;-71
2022/02/04 01:47:56;;;;;;;0.20;0.20;;;;;;;;;;5018403;28;20091;-71
2022/02/04 01:50:23;;;;;;;0.47;0.32;;;;;;;;;;5027274;28;20034;-71
2022/02/04 01:52:50;;;;;;;0.52;0.20;;;;;;;;;;5017682;28;20037;-72
2022/02/04 01:55:16;;;;;;;0.93;0.30;;;;;;;;;;5006427;28;20025;-71
2022/02/04 01:57:42;;;;;;;0.45;0.20;;;;;;;;;;5006018;28;20030;-71
2022/02/04 02:00:09;;;;;;;0.63;0.40;;;;;;;;;;5004441;28;20057;-71
2022/02/04 02:02:35;;;;;;;2.45;0.30;;;;;;;;;;5005622;28;20707;-72
2022/02/04 02:05:01;;;;;;;0.75;0.45;;;;;;;;;;5033402;28;20048;-71
2022/02/04 02:07:29;;;;;;;0.52;0.20;;;;;;;;;;5045989;28;20033;-72
2022/02/04 02:12:25;;;;;;;0.77;0.40;;;;;;;;;;5025205;28;20041;-72
2022/02/04 02:15:04;;;;;;;0.30;0.25;;;;;;;;;;5025446;28;20083;-72
2022/02/04 02:34:41;;;;;;;0.70;0.43;;;;;;;;;;5003799;28;20104;-71
2022/02/04 02:47:35;;;;;;;0.60;0.30;;;;;;;;;;5025007;28;20641;-72
2022/02/04 02:58:09;;;;;;;0.22;0.22;;;;;;;;;;5044409;28;20044;-74
2022/02/04 03:00:50;;;;;;;0.88;0.50;;;;;;;;;;5042602;28;20092;-74
2022/02/04 03:03:19;;;;;;;0.20;0.20;;;;;;;;;;5044515;28;20531;-71
2022/02/04 03:05:45;;;;;;;0.88;0.43;;;;;;;;;;5033816;28;20461;-74
2022/02/04 03:08:12;;;;;;;0.70;0.38;;;;;;;;;;5024841;28;20033;-72
2022/02/04 03:10:38;;;;;;;0.70;0.40;;;;;;;;;;5024646;28;20091;-73
2022/02/04 03:13:06;;;;;;;0.95;0.60;;;;;;;;;;5006545;28;20045;-72
2022/02/04 03:15:33;;;;;;;0.77;0.50;;;;;;;;;;5023091;28;20038;-73
2022/02/04 03:18:06;;;;;;;1.38;0.40;;;;;;;;;;5024018;28;20026;-73
2022/02/04 03:20:59;;;;;;;1.02;0.70;;;;;;;;;;5023797;28;20037;-71
2022/02/04 03:23:21;;;;;;;0.30;0.30;;;;;;;;;;5023620;28;20473;-71
2022/02/04 03:25:57;;;;;;;3.10;0.82;;;;;;;;;;5004363;28;20034;-71
2022/02/04 03:28:27;;;;;;;2.08;0.75;;;;;;;;;;5006450;28;20036;-71
2022/02/04 03:30:55;;;;;;;6.00;0.90;;;;;;;;;;5006604;28;20036;-72
2022/02/04 03:33:25;;;;;;;2.08;0.93;;;;;;;;;;5021451;28;20136;-73
2022/02/04 03:35:51;;;;;;;1.50;0.70;;;;;;;;;;5004524;28;20194;-72
2022/02/04 03:38:17;;;;;;;0.75;0.40;;;;;;;;;;5023208;28;20481;-71
2022/02/04 03:40:43;;;;;;;0.52;0.40;;;;;;;;;;5015886;28;20049;-73
2022/02/04 03:43:10;;;;;;;1.25;0.50;;;;;;;;;;5013274;28;20033;-71
2022/02/04 03:45:36;;;;;;;2.17;1.20;;;;;;;;;;5023809;28;20061;-74
2022/02/04 03:48:03;;;;;;;1.58;0.73;;;;;;;;;;5023560;28;20044;-76
2022/02/04 03:50:29;;;;;;;1.17;0.70;;;;;;;;;;5023242;28;20025;-75
2022/02/04 03:52:55;;;;;;;1.85;0.70;;;;;;;;;;5027100;28;20021;-76
2022/02/04 03:55:21;;;;;;;0.60;0.40;;;;;;;;;;5043603;28;20079;-75
2022/02/04 03:57:48;;;;;;;1.08;0.57;;;;;;;;;;5024738;28;20040;-73
2022/02/04 04:00:16;;;;;;;3.10;1.00;;;;;;;;;;5020085;28;20057;-76
2022/02/04 04:02:43;;;;;;;1.50;0.90;;;;;;;;;;5005120;28;20073;-72
2022/02/04 04:05:10;;;;;;;2.42;1.30;;;;;;;;;;5021397;28;20022;-72
2022/02/04 04:07:42;;;;;;;2.03;0.80;;;;;;;;;;5021606;28;20331;-75
2022/02/04 04:10:12;;;;;;;1.08;0.70;;;;;;;;;;5019742;28;20033;-73
2022/02/04 04:12:38;;;;;;;1.75;0.77;;;;;;;;;;5022734;28;20041;-72
2022/02/04 04:15:07;;;;;;;0.93;0.70;;;;;;;;;;5022990;28;20033;-73
2022/02/04 04:17:42;;;;;;;1.90;0.93;;;;;;;;;;5022241;28;20105;-73
2022/02/04 04:20:09;;;;;;;3.28;0.82;;;;;;;;;;5026667;28;20029;-73
2022/02/04 04:22:35;;;;;;;1.42;0.70;;;;;;;;;;5018582;28;20485;-74
2022/02/04 04:25:03;;;;;;;0.60;0.47;;;;;;;;;;5015024;28;20095;-73
2022/02/04 04:27:29;;;;;;;1.02;0.43;;;;;;;;;;5002729;28;20496;-74
2022/02/04 04:29:55;;;;;;;1.60;0.60;;;;;;;;;;5012561;28;20536;-73
2022/02/04 04:32:21;;;;;;;0.85;0.52;;;;;;;;;;5021654;28;20461;-74
2022/02/04 04:34:48;;;;;;;2.20;0.30;;;;;;;;;;5022279;28;20053;-74
2022/02/04 04:37:14;;;;;;;0.75;0.40;;;;;;;;;;5022443;28;20075;-73
2022/02/04 04:42:38;;;;;;;1.15;0.50;;;;;;;;;;4991718;28;20547;-75
2022/02/04 04:45:40;;;;;;;1.23;0.60;;;;;;;;;;5006391;28;20036;-72
2022/02/04 05:26:51;;;;;;;3.22;1.00;;;;;;;;;;5021968;28;20568;-73
2022/02/04 05:29:16;;;;;;;2.70;0.88;;;;;;;;;;5021915;28;20529;-72
2022/02/04 05:31:43;;;;;;;1.23;0.77;;;;;;;;;;5024223;28;20264;-72
2022/02/04 05:34:09;;;;;;;2.03;1.00;;;;;;;;;;5022874;28;20052;-72
2022/02/04 05:36:41;;;;;;;2.20;0.90;;;;;;;;;;5021776;28;20128;-71
2022/02/04 05:39:08;;;;;;;3.28;1.15;;;;;;;;;;5005684;28;20049;-72
2022/02/04 05:41:38;;;;;;;2.47;0.80;;;;;;;;;;5023882;28;20354;-72
2022/02/04 05:44:09;;;;;;;2.25;0.88;;;;;;;;;;5005882;28;20056;-71
2022/02/04 05:46:47;;;;;;;2.97;1.10;;;;;;;;;;5022969;28;20045;-72
2022/02/04 05:49:16;;;;;;;1.10;0.63;;;;;;;;;;5023285;28;20037;-72
2022/02/04 05:51:59;;;;;;;1.52;0.60;;;;;;;;;;5023472;28;20032;-72
2022/02/04 05:54:46;;;;;;;1.13;0.55;;;;;;;;;;5032158;28;20079;-71
2022/02/04 05:57:28;;;;;;;2.05;0.85;;;;;;;;;;5021846;28;20497;-71
2022/02/04 06:02:50;;;;;;;1.67;0.80;;;;;;;;;;5023601;28;20044;-72
2022/02/04 06:08:20;;;;;;;0.80;0.55;;;;;;;;;;5023071;28;20203;-72
2022/02/04 06:23:53;;;;;;;0.65;0.40;;;;;;;;;;5021357;28;20523;-72
2022/02/04 06:26:19;;;;;;;1.50;0.90;;;;;;;;;;5020790;28;20124;-72
2022/02/04 06:28:45;;;;;;;3.58;0.80;;;;;;;;;;5023117;28;20041;-72
2022/02/04 06:31:11;;;;;;;1.25;0.68;;;;;;;;;;5003265;28;20033;-72
2022/02/04 06:33:38;;;;;;;1.15;0.60;;;;;;;;;;5021300;28;20075;-72
2022/02/04 06:36:04;;;;;;;2.33;0.80;;;;;;;;;;5022076;28;20041;-72
2022/02/04 06:38:31;;;;;;;2.78;0.70;;;;;;;;;;5022532;28;20065;-72
2022/02/04 06:40:57;;;;;;;1.23;0.70;;;;;;;;;;5022673;28;20501;-72
2022/02/04 06:43:23;;;;;;;1.58;0.80;;;;;;;;;;5003316;28;20773;-71
2022/02/04 06:45:49;;;;;;;2.17;0.85;;;;;;;;;;5023007;28;20099;-73
2022/02/04 06:48:15;;;;;;;2.80;0.93;;;;;;;;;;5022630;28;20566;-74
2022/02/04 06:50:41;;;;;;;2.00;1.02;;;;;;;;;;5022416;28;20022;-72
2022/02/04 06:53:08;;;;;;;1.85;1.10;;;;;;;;;;5027930;28;20633;-72
2022/02/04 06:55:35;;;;;;;2.05;1.00;;;;;;;;;;5040423;28;20033;-73
2022/02/04 06:58:02;;;;;;;1.52;0.90;;;;;;;;;;5037363;28;20025;-73
2022/02/04 07:00:29;;;;;;;1.52;0.98;;;;;;;;;;5041477;28;20439;-73
2022/02/04 07:02:56;;;;;;;1.77;1.05;;;;;;;;;;5040767;28;20023;-72
2022/02/04 07:05:23;;;;;;;1.45;0.93;;;;;;;;;;5042661;28;20032;-73
2022/02/04 07:08:08;;;;;;;1.60;0.90;;;;;;;;;;5041987;28;20751;-72
2022/02/04 07:10:52;;;;;;;1.60;0.85;;;;;;;;;;5023041;28;20030;-72
2022/02/04 07:13:25;;;;;;;1.20;0.88;;;;;;;;;;5021327;28;20072;-72
2022/02/04 07:16:41;;;;;;;1.55;0.70;;;;;;;;;;5020694;28;20080;-73
2022/02/04 07:21:22;;;;;;;2.33;0.80;;;;;;;;;;5022102;28;20679;-72
2022/02/04 07:23:48;;;;;;;0.95;0.80;;;;;;;;;;5021937;28;20115;-72
2022/02/04 07:26:14;;;;;;;3.15;1.10;;;;;;;;;;5018811;28;20033;-72
2022/02/04 07:28:41;;;;;;;1.17;0.80;;;;;;;;;;5021574;28;20106;-73
2022/02/04 07:31:07;;;;;;;3.42;0.93;;;;;;;;;;5017775;28;20040;-72
2022/02/04 07:33:46;;;;;;;2.45;1.00;;;;;;;;;;5019738;28;20053;-73
2022/02/04 07:40:51;;;;;;;3.30;1.38;;;;;;;;;;5021171;28;20044;-72
2022/02/04 07:41:34;;;;;;;2.95;1.60;;;;;;;;;;5000594;28;20299;-72
2022/02/04 07:44:00;;;;;;;6.00;2.67;;;;;;;;;;5010006;28;20038;-73
2022/02/04 07:46:26;;;;;;;5.82;2.20;;;;;;;;;;5013008;28;20440;-73
2022/02/04 07:48:52;;;;;;;3.03;1.45;;;;;;;;;;5020437;28;20505;-72
2022/02/04 07:51:19;;;;;;;3.63;1.63;;;;;;;;;;5019976;28;20033;-72
2022/02/04 07:53:45;;;;;;;2.63;1.48;;;;;;;;;;5032011;28;20511;-72
2022/02/04 07:56:11;;;;;;;3.97;1.77;;;;;;;;;;5040876;28;20025;-73
2022/02/04 07:58:37;;;;;;;2.97;1.40;;;;;;;;;;5040355;28;20025;-72
2022/02/04 08:01:03;;;;;;;4.07;1.52;;;;;;;;;;5038174;28;20499;-72
2022/02/04 08:03:39;;;;;;;1.88;1.25;;;;;;;;;;5019967;28;20562;-72
2022/02/04 08:06:11;;;;;;;4.28;1.85;;;;;;;;;;5020944;28;20033;-73
2022/02/04 08:12:21;;;;;;;5.28;2.25;;;;;;;;;;5021067;28;20076;-71
2022/02/04 08:14:34;;;;;;;3.60;1.77;;;;;;;;;;5014046;28;20045;-75
2022/02/04 08:29:47;;;;;;;7.70;4.30;;;;;;;;;;5005382;28;20026;-73
2022/02/04 08:56:37;;;;;;;2.30;1.52;;;;;;;;;;5020905;28;20051;-73
2022/02/04 08:59:10;;;;;;;6.63;3.20;;;;;;;;;;5019853;28;20092;-73
2022/02/04 09:01:42;;;;;;;6.75;2.17;;;;;;;;;;5019381;28;20136;-74
2022/02/04 09:04:16;;;;;;;5.38;1.88;;;;;;;;;;5017874;28;20026;-74
2022/02/04 09:07:01;;;;;;;6.82;1.80;;;;;;;;;;5019835;28;20055;-73
2022/02/04 09:10:11;;;;;;;4.70;2.20;;;;;;;;;;5010382;28;20065;-74
2022/02/04 09:20:35;;;;;;;5.40;3.03;;;;;;;;;;5019845;28;20443;-73
2022/02/04 09:23:01;;;;;;;9.68;5.22;;;;;;;;;;5019219;28;20071;-74
2022/02/04 09:25:28;;;;;;;9.77;5.93;;;;;;;;;;5016333;28;20026;-72
2022/02/04 09:27:54;;;;;;;6.70;4.20;;;;;;;;;;5019403;28;20029;-72
2022/02/04 09:30:21;;;;;;;7.35;4.13;;;;;;;;;;5019331;28;20033;-73
2022/02/04 09:32:47;;;;;;;3.90;2.95;;;;;;;;;;5019445;28;20039;-74
2022/02/04 09:35:15;;;;;;;6.20;3.70;;;;;;;;;;5018002;28;20056;-73
2022/02/04 09:37:42;;;;;;;10.10;5.25;;;;;;;;;;5019005;28;20025;-74
2022/02/04 09:40:09;;;;;;;6.85;3.42;;;;;;;;;;5018836;28;20171;-73
2022/02/04 09:42:37;;;;;;;5.15;3.00;;;;;;;;;;5029680;28;20029;-73
2022/02/04 09:45:03;;;;;;;5.18;2.63;;;;;;;;;;5038082;28;20037;-74
2022/02/04 09:47:36;;;;;;;5.53;2.53;;;;;;;;;;5039039;28;20036;-73
2022/02/04 09:50:09;;;;;;;5.60;3.10;;;;;;;;;;5033730;28;20032;-74
2022/02/04 10:22:04;;;;;;;5.60;2.50;;;;;;;;;;5000897;28;20045;-73
2022/02/04 10:24:31;;;;;;;7.22;3.13;;;;;;;;;;5002561;28;20030;-73
2022/02/04 10:27:17;;;;;;;5.05;2.47;;;;;;;;;;5000931;28;20512;-73
2022/02/04 10:29:44;;;;;;;7.95;2.42;;;;;;;;;;5002486;28;20030;-73
2022/02/04 10:32:11;;;;;;;6.22;2.25;;;;;;;;;;5001848;28;20030;-72
2022/02/04 10:34:39;;;;;;;6.90;2.60;;;;;;;;;;5022070;28;20541;-72
2022/02/04 10:37:25;;;;;;;6.82;2.40;;;;;;;;;;5022231;28;20087;-73
2022/02/04 10:40:03;;;;;;;4.63;1.80;;;;;;;;;;5022218;28;20036;-73
2022/02/04 10:42:55;;;;;;;10.65;2.88;;;;;;;;;;5021988;28;20025;-73
2022/02/04 10:45:38;;;;;;;22.80;12.48;;;;;;;;;;5002349;28;20026;-73
2022/02/04 11:07:19;;;;;;;3.95;1.60;;;;;;;;;;5020968;28;20045;-73
2022/02/04 11:31:39;;;;;;;6.72;1.65;;;;;;;;;;5020554;28;20128;-73
2022/02/04 11:54:30;;;;;;;4.10;1.77;;;;;;;;;;5023743;28;20397;-73
2022/02/04 11:56:56;;;;;;;5.97;1.58;;;;;;;;;;5017084;28;20029;-73
2022/02/04 11:59:36;;;;;;;3.88;1.40;;;;;;;;;;5022581;28;20075;-72
2022/02/04 12:02:03;;;;;;;4.55;1.30;;;;;;;;;;5024774;28;20104;-78
2022/02/04 12:04:30;;;;;;;3.38;1.48;;;;;;;;;;5024704;28;20108;-72
2022/02/04 12:06:56;;;;;;;4.57;1.70;;;;;;;;;;5024826;28;20485;-73
2022/02/04 12:09:35;;;;;;;5.32;1.70;;;;;;;;;;5023017;28;20025;-73
2022/02/04 12:12:01;;;;;;;3.95;1.98;;;;;;;;;;5024677;28;20026;-73
2022/02/04 12:14:31;;;;;;;5.45;1.70;;;;;;;;;;5024222;28;20021;-70
2022/02/04 12:17:04;;;;;;;5.78;1.63;;;;;;;;;;5023227;28;20037;-70
2022/02/04 12:19:37;;;;;;;3.70;1.70;;;;;;;;;;5024476;28;20080;-72
2022/02/04 12:22:04;;;;;;;7.82;1.85;;;;;;;;;;5024145;28;20136;-71
2022/02/04 12:24:31;;;;;;;8.43;2.78;;;;;;;;;;5024432;28;20035;-72
2022/02/04 12:27:25;;;;;;;2.70;1.85;;;;;;;;;;5023784;28;20068;-72
2022/02/04 12:29:51;;;;;;;2.83;1.67;;;;;;;;;;5022932;28;20052;-72
2022/02/04 12:32:19;;;;;;;7.10;2.47;;;;;;;;;;5023702;28;20113;-72
2022/02/04 12:34:48;;;;;;;4.75;1.70;;;;;;;;;;5024033;28;20041;-72
2022/02/04 12:37:19;;;;;;;3.45;1.77;;;;;;;;;;5018210;28;20045;-72
2022/02/04 12:39:46;;;;;;;8.00;1.85;;;;;;;;;;5022420;28;20102;-71
2022/02/04 12:42:13;;;;;;;4.20;1.73;;;;;;;;;;5023973;28;20429;-72
2022/02/04 12:44:40;;;;;;;6.10;2.00;;;;;;;;;;5023179;28;20136;-71
2022/02/04 12:47:12;;;;;;;6.05;1.88;;;;;;;;;;5023910;28;20095;-72
2022/02/04 12:49:47;;;;;;;6.53;1.80;;;;;;;;;;5023565;28;20069;-72
2022/02/04 12:52:43;;;;;;;8.07;1.85;;;;;;;;;;5021740;28;20017;-71
2022/02/04 12:55:10;;;;;;;7.05;2.17;;;;;;;;;;5020610;28;20034;-72
2022/02/04 12:57:43;;;;;;;5.97;1.75;;;;;;;;;;5023630;28;20516;-72
2022/02/04 13:10:56;;;;;;;4.32;1.88;;;;;;;;;;5023438;28;20030;-74
2022/02/04 13:13:23;;;;;;;4.43;1.67;;;;;;;;;;5020476;28;20017;-72
2022/02/04 13:15:51;;;;;;;3.33;1.90;;;;;;;;;;5021713;28;20044;-74
2022/02/04 13:18:17;;;;;;;5.53;1.90;;;;;;;;;;5022636;28;20017;-73
2022/02/04 13:20:48;;;;;;;5.80;1.35;;;;;;;;;;5022856;28;20033;-73
2022/02/04 13:23:20;;;;;;;6.57;1.90;;;;;;;;;;5022558;28;20108;-73
2022/02/04 13:25:46;;;;;;;;;;;;;;;;;;5024446;28;20497;-73
2022/02/04 13:28:19;;;;;;;4.78;1.90;;;;;;;;;;5025660;28;19971;-73
2022/02/04 13:30:48;;;;;;;5.82;1.70;;;;;;;;;;5025853;28;20450;-73
2022/02/04 13:33:16;;;;;;;8.27;2.00;;;;;;;;;;5022333;28;20033;-72
2022/02/04 13:35:43;;;;;;;7.60;1.60;;;;;;;;;;5022720;28;20049;-73
2022/02/04 13:38:19;;;;;;;6.32;2.28;;;;;;;;;;5028204;28;20388;-73
2022/02/04 13:41:07;;;;;;;5.25;1.90;;;;;;;;;;5026839;28;20590;-73
2022/02/04 13:46:36;;;;;;;5.30;1.70;;;;;;;;;;5019771;28;20033;-72
2022/02/04 13:49:07;;;;;;;6.40;2.20;;;;;;;;;;5020088;28;20065;-72
2022/02/04 13:51:42;;;;;;;5.03;1.88;;;;;;;;;;5022774;28;20117;-73
2022/02/04 13:54:17;;;;;;;3.15;1.55;;;;;;;;;;5019232;28;20041;-73
2022/02/04 13:56:54;;;;;;;3.90;2.20;;;;;;;;;;5022274;28;20041;-72
2022/02/04 13:59:37;;;;;;;7.47;2.00;;;;;;;;;;5021714;28;20026;-72
2022/02/04 14:02:08;;;;;;;9.70;2.00;;;;;;;;;;5022195;28;20072;-73
2022/02/04 14:04:34;;;;;;;5.70;1.90;;;;;;;;;;5002649;28;20033;-72
2022/02/04 14:07:10;;;;;;;6.70;2.20;;;;;;;;;;5019151;28;20022;-73
2022/02/04 14:09:47;;;;;;;4.97;2.05;;;;;;;;;;5021408;28;20368;-72
2022/02/04 14:12:14;;;;;;;5.63;2.03;;;;;;;;;;5040705;28;20029;-73
2022/02/04 14:14:40;;;;;;;8.40;1.90;;;;;;;;;;5036442;28;20117;-72
2022/02/04 14:17:06;;;;;;;4.20;1.77;;;;;;;;;;5022574;28;20021;-72
2022/02/04 14:19:33;;;;;;;3.60;1.60;;;;;;;;;;5020125;28;20103;-73
2022/02/04 14:21:59;;;;;;;6.38;1.90;;;;;;;;;;5019756;28;20147;-72
2022/02/04 14:24:27;;;;;;;4.30;1.67;;;;;;;;;;5002253;28;20025;-73
2022/02/04 14:26:54;;;;;;;2.92;1.77;;;;;;;;;;5021943;28;20045;-72
2022/02/04 14:29:37;;;;;;;6.28;1.70;;;;;;;;;;5024375;28;20043;-72
2022/02/04 14:32:17;;;;;;;9.00;1.80;;;;;;;;;;5021976;28;20607;-72
2022/02/04 14:35:51;;;;;;;4.57;1.70;;;;;;;;;;5019019;28;20822;-72
2022/02/04 14:52:00;;;;;;;7.57;1.83;;;;;;;;;;5020275;28;20405;-72
2022/02/04 15:00:19;;;;;;;6.70;2.22;;;;;;;;;;5007089;28;20139;-72
2022/02/04 15:02:47;;;;;;;4.68;2.80;;;;;;;;;;5018820;28;20036;-72
2022/02/04 15:05:20;;;;;;;5.68;1.83;;;;;;;;;;5021259;28;20444;-72
2022/02/04 15:07:48;;;;;;;12.02;2.25;;;;;;;;;;5010269;28;20033;-72
2022/02/04 15:10:33;;;;;;;5.93;2.00;;;;;;;;;;5018933;28;20064;-72
2022/02/04 15:13:00;;;;;;;6.88;1.88;;;;;;;;;;5020495;28;20091;-72
2022/02/04 15:15:27;;;;;;;6.13;1.42;;;;;;;;;;5020073;28;20055;-72
2022/02/04 15:17:54;;;;;;;9.40;1.85;;;;;;;;;;5018551;28;20029;-72
2022/02/04 15:20:22;;;;;;;6.25;1.60;;;;;;;;;;5010482;28;20029;-72
2022/02/04 15:22:49;;;;;;;6.20;1.30;;;;;;;;;;5020447;28;20059;-72
2022/02/04 15:25:20;;;;;;;4.60;1.50;;;;;;;;;;5020551;28;20091;-72
2022/02/04 15:28:00;;;;;;;5.88;1.90;;;;;;;;;;4982410;28;20152;-72
2022/02/04 15:30:32;;;;;;;2.90;1.42;;;;;;;;;;5025689;28;20464;-72
2022/02/04 15:32:58;;;;;;;7.13;1.85;;;;;;;;;;5034807;28;20033;-72
2022/02/04 15:35:25;;;;;;;7.38;1.95;;;;;;;;;;5019920;28;20053;-73
2022/02/04 15:37:51;;;;;;;4.35;2.15;;;;;;;;;;5019009;28;20030;-72
2022/02/04 15:40:17;;;;;;;6.68;2.00;;;;;;;;;;5018596;28;20033;-73
2022/02/04 15:42:52;;;;;;;3.92;1.52;;;;;;;;;;5020495;28;20607;-72
2022/02/04 15:53:38;;;;;;;5.45;1.75;;;;;;;;;;5001081;28;20049;-72
2022/02/04 16:01:27;;;;;;;6.65;1.63;;;;;;;;;;5018836;28;20044;-72
2022/02/04 16:04:01;;;;;;;6.03;1.38;;;;;;;;;;5019471;28;20033;-73
2022/02/04 16:06:27;;;;;;;9.73;1.77;;;;;;;;;;5019724;28;20029;-71
2022/02/04 16:08:55;;;;;;;7.03;1.60;;;;;;;;;;5020281;28;20033;-72
2022/02/04 16:11:38;;;;;;;6.00;1.48;;;;;;;;;;5013504;28;20018;-72
2022/02/04 16:16:39;;;;;;;5.47;1.58;;;;;;;;;;5008375;28;20712;-72
2022/02/04 16:19:17;;;;;;;;;;;;;;;;;;5000892;28;20026;-73
2022/02/04 16:27:08;;;;;;;7.28;1.75;;;;;;;;;;5019642;28;20221;-73
2022/02/04 16:29:37;;;;;;;8.05;1.80;;;;;;;;;;5005078;28;20143;-74
2022/02/04 16:32:05;;;;;;;5.00;1.63;;;;;;;;;;5019203;28;20061;-72
2022/02/04 16:34:31;;;;;;;7.25;1.63;;;;;;;;;;5019389;28;20152;-72
2022/02/04 16:37:04;;;;;;;5.50;1.77;;;;;;;;;;5019796;28;20376;-72
2022/02/04 16:39:31;;;;;;;9.13;1.50;;;;;;;;;;5017565;28;20025;-72
2022/02/04 16:42:10;;;;;;;6.68;1.48;;;;;;;;;;5018996;28;20532;-72
2022/02/04 16:44:37;;;;;;;8.00;1.60;;;;;;;;;;5019631;28;20037;-72
2022/02/04 16:47:04;;;;;;;6.25;1.83;;;;;;;;;;5019144;28;20033;-72
2022/02/04 16:49:30;;;;;;;4.88;2.00;;;;;;;;;;5017736;28;20036;-72
2022/02/04 16:51:56;;;;;;;5.15;1.40;;;;;;;;;;5019264;28;20128;-72
2022/02/04 16:54:23;;;;;;;8.25;1.52;;;;;;;;;;5019377;28;20029;-72
2022/02/04 16:56:51;;;;;;;5.32;1.42;;;;;;;;;;5019422;28;20083;-73
2022/02/04 16:59:17;;;;;;;4.68;1.60;;;;;;;;;;5017671;28;20109;-72
2022/02/04 17:01:43;;;;;;;5.63;1.45;;;;;;;;;;5018512;28;20658;-72
2022/02/04 17:04:11;;;;;;;8.02;1.80;;;;;;;;;;5017374;28;20021;-73
2022/02/04 17:06:41;;;;;;;6.45;1.67;;;;;;;;;;5019241;28;20116;-72
2022/02/04 17:11:46;;;;;;;3.30;1.67;;;;;;;;;;5012801;28;20025;-73
2022/02/04 17:14:14;;;;;;;5.68;1.52;;;;;;;;;;5016599;28;20033;-72
2022/02/04 17:16:43;;;;;;;5.57;1.60;;;;;;;;;;5014268;28;20025;-72
2022/02/04 17:19:12;;;;;;;4.05;1.30;;;;;;;;;;5018407;28;20021;-73
2022/02/04 17:21:39;;;;;;;4.30;1.77;;;;;;;;;;5017170;28;20025;-72
2022/02/04 17:24:05;;;;;;;5.82;1.85;;;;;;;;;;5019358;28;20032;-72
2022/02/04 17:26:32;;;;;;;4.00;1.50;;;;;;;;;;5018585;28;20088;-74
2022/02/04 17:28:58;;;;;;;6.43;1.90;;;;;;;;;;5001094;28;20984;-73
2022/02/04 17:31:24;;;;;;;6.63;2.03;;;;;;;;;;5015295;28;20484;-72
2022/02/04 17:33:50;;;;;;;5.78;1.50;;;;;;;;;;5019375;28;20064;-73
2022/02/04 17:36:17;;;;;;;7.68;1.65;;;;;;;;;;5020275;28;20034;-72
2022/02/04 17:38:43;;;;;;;9.75;1.90;;;;;;;;;;5019864;28;20095;-72
2022/02/04 17:41:10;;;;;;;5.93;2.20;;;;;;;;;;5019595;28;20061;-73
2022/02/04 17:43:42;;;;;;;9.13;1.75;;;;;;;;;;5020605;28;20029;-73
2022/02/04 17:46:08;;;;;;;6.70;1.73;;;;;;;;;;5018460;28;20021;-73
2022/02/04 17:48:58;;;;;;;3.90;1.83;;;;;;;;;;5020647;28;20512;-73
2022/02/04 17:53:54;;;;;;;15.20;1.83;;;;;;;;;;5018942;28;20037;-74
2022/02/04 17:56:33;;;;;;;7.65;1.60;;;;;;;;;;5019345;28;20024;-72
2022/02/04 17:59:18;;;;;;;4.38;1.33;;;;;;;;;;5020638;28;20025;-73
2022/02/04 18:07:30;;;;;;;5.68;1.33;;;;;;;;;;5015033;28;20107;-72
2022/02/04 18:09:57;;;;;;;7.95;1.90;;;;;;;;;;5019562;28;20029;-72
2022/02/04 18:12:24;;;;;;;7.57;1.52;;;;;;;;;;5005648;28;20116;-73
2022/02/04 18:14:53;;;;;;;4.20;1.17;;;;;;;;;;5021875;28;20021;-72
2022/02/04 18:17:20;;;;;;;3.03;1.10;;;;;;;;;;5021641;28;20112;-72
2022/02/04 18:19:47;;;;;;;3.40;1.20;;;;;;;;;;5020472;28;20022;-72
2022/02/04 18:22:13;;;;;;;5.47;1.42;;;;;;;;;;5019850;28;20030;-72
2022/02/04 18:24:39;;;;;;;5.18;1.20;;;;;;;;;;5021608;28;20052;-73
2022/02/04 18:27:08;;;;;;;2.88;1.33;;;;;;;;;;5021701;28;20108;-73
2022/02/04 18:29:41;;;;;;;5.20;1.63;;;;;;;;;;5020025;28;20087;-72
2022/02/04 18:32:07;;;;;;;3.40;1.10;;;;;;;;;;5021568;28;20473;-72
2022/02/04 18:34:34;;;;;;;10.73;1.83;;;;;;;;;;5020434;28;20111;-73
2022/02/04 18:37:02;;;;;;;5.13;1.55;;;;;;;;;;5015928;28;20117;-74
2022/02/04 18:39:49;;;;;;;6.43;1.70;;;;;;;;;;5019089;28;20036;-72
2022/02/04 18:45:16;;;;;;;4.32;1.20;;;;;;;;;;4981492;28;20795;-72
2022/02/04 18:48:05;;;;;;;3.78;1.42;;;;;;;;;;5021301;28;20041;-72
2022/02/04 18:50:46;;;;;;;5.55;1.20;;;;;;;;;;5021266;28;20029;-72
2022/02/04 18:58:28;;;;;;;4.45;1.38;;;;;;;;;;5021340;28;20044;-72
2022/02/04 19:00:56;;;;;;;2.63;1.17;;;;;;;;;;5018879;28;20042;-73
2022/02/04 19:03:41;;;;;;;5.72;1.80;;;;;;;;;;4999787;28;20034;-73
2022/02/04 19:08:45;;;;;;;;;;;;;;;;;;5020416;28;20110;-73
2022/02/04 19:11:15;;;;;;;5.15;1.60;;;;;;;;;;5006821;28;19990;-72
2022/02/04 19:13:48;;;;;;;7.55;1.50;;;;;;;;;;5018223;28;20032;-73
2022/02/04 19:21:21;;;;;;;8.32;2.03;;;;;;;;;;5018238;28;20021;-73
2022/02/04 19:23:50;;;;;;;6.18;1.85;;;;;;;;;;5006171;28;20570;-73
2022/02/04 19:26:25;;;;;;;6.72;1.50;;;;;;;;;;5017938;28;20076;-73
2022/02/04 19:28:51;;;;;;;2.90;1.27;;;;;;;;;;5020120;28;20083;-73
2022/02/04 19:31:17;;;;;;;3.92;1.23;;;;;;;;;;5019364;28;20489;-72
2022/02/04 19:33:45;;;;;;;4.20;1.27;;;;;;;;;;5018778;28;20735;-73
2022/02/04 19:36:12;;;;;;;4.38;1.50;;;;;;;;;;5017472;28;20033;-71
2022/02/04 19:38:38;;;;;;;3.35;1.42;;;;;;;;;;5015905;28;20024;-72
2022/02/04 19:41:06;;;;;;;8.43;1.42;;;;;;;;;;5020458;28;20030;-73
2022/02/04 19:43:34;;;;;;;6.13;1.60;;;;;;;;;;5019077;28;20060;-72
2022/02/04 19:46:10;;;;;;;4.88;1.70;;;;;;;;;;5017952;28;20025;-72
2022/02/04 19:48:43;;;;;;;3.65;1.90;;;;;;;;;;5020161;28;20493;-72
2022/02/04 20:25:56;;;;;;;11.43;3.92;;;;;;;;;;5017242;28;20091;-73
2022/02/04 20:28:23;;;;;;;6.88;3.45;;;;;;;;;;5001477;28;20122;-72
2022/02/04 20:30:49;;;;;;;9.27;2.63;;;;;;;;;;5019370;28;20033;-73
2022/02/04 20:33:16;;;;;;;6.30;2.42;;;;;;;;;;5017374;28;20040;-73
2022/02/04 20:35:43;;;;;;;6.25;3.20;;;;;;;;;;5017760;28;20136;-72
2022/02/04 20:38:14;;;;;;;7.93;3.05;;;;;;;;;;5017529;28;20033;-73
2022/02/04 20:40:40;;;;;;;6.78;2.83;;;;;;;;;;5018846;28;20021;-73
2022/02/04 20:43:07;;;;;;;5.15;3.22;;;;;;;;;;5017566;28;20100;-72
2022/02/04 20:45:33;;;;;;;13.10;3.55;;;;;;;;;;5028876;28;20059;-73
2022/02/04 20:48:00;;;;;;;12.27;4.00;;;;;;;;;;5019526;28;20037;-73
2022/02/04 20:50:27;;;;;;;12.63;4.18;;;;;;;;;;5019344;28;20026;-72
2022/02/04 20:52:53;;;;;;;9.45;3.85;;;;;;;;;;5019866;28;20105;-72
2022/02/04 20:55:20;;;;;;;7.50;3.10;;;;;;;;;;5019095;28;20034;-73
2022/02/04 20:57:54;;;;;;;6.68;3.15;;;;;;;;;;5017299;28;20426;-73
2022/02/04 21:00:29;;;;;;;12.40;3.72;;;;;;;;;;5019456;28;20452;-72
2022/02/04 21:02:56;;;;;;;7.97;3.90;;;;;;;;;;5018816;28;20030;-72
2022/02/04 21:05:27;;;;;;;15.48;4.40;;;;;;;;;;5017859;28;20097;-72
2022/02/04 21:08:25;;;;;;;13.45;3.97;;;;;;;;;;5013615;28;20034;-72
2022/02/04 21:13:46;;;;;;;10.10;3.60;;;;;;;;;;5018735;28;20412;-72
2022/02/04 21:16:13;;;;;;;11.57;3.28;;;;;;;;;;5019453;28;20017;-73
2022/02/04 21:18:39;;;;;;;8.32;3.65;;;;;;;;;;5017918;28;20053;-72
2022/02/04 21:21:05;;;;;;;6.15;3.65;;;;;;;;;;5018857;28;20427;-72
2022/02/04 21:23:32;;;;;;;8.40;3.40;;;;;;;;;;5018303;28;20025;-72
2022/02/04 21:26:00;;;;;;;7.47;3.38;;;;;;;;;;5022325;28;20037;-72
2022/02/04 21:28:28;;;;;;;9.73;2.90;;;;;;;;;;5021567;28;20030;-72
2022/02/04 21:30:54;;;;;;;10.23;3.33;;;;;;;;;;5023314;28;20036;-72
2022/02/04 21:33:40;;;;;;;8.32;3.38;;;;;;;;;;5022730;28;20122;-72
2022/02/04 21:38:52;;;;;;;8.85;2.90;;;;;;;;;;5022622;28;20075;-72
2022/02/04 21:41:18;;;;;;;6.80;2.97;;;;;;;;;;5021053;28;20033;-72
2022/02/04 21:43:50;;;;;;;13.13;3.28;;;;;;;;;;5022554;28;20032;-72
2022/02/04 21:46:16;;;;;;;7.47;2.90;;;;;;;;;;5023255;28;20041;-72
2022/02/04 21:48:48;;;;;;;10.48;2.95;;;;;;;;;;5027148;28;20044;-72
2022/02/04 21:51:14;;;;;;;;;;;;;;;;;;5027353;28;20048;-72
2022/02/04 21:53:41;;;;;;;7.72;2.50;;;;;;;;;;5009143;28;20357;-72
2022/02/04 21:56:08;;;;;;;12.63;3.35;;;;;;;;;;5025826;28;20083;-72
2022/02/04 21:58:35;;;;;;;9.13;2.58;;;;;;;;;;5027292;28;20052;-72
2022/02/04 22:01:02;;;;;;;11.70;3.42;;;;;;;;;;5027229;28;20032;-72
2022/02/04 22:03:28;;;;;;;5.43;2.50;;;;;;;;;;5015564;28;20023;-72
2022/02/04 22:05:54;;;;;;;7.97;2.65;;;;;;;;;;5009044;28;20049;-71